Time;durP1;ratioP1;P1;durP2;ratioP2;P2;SDS_P1;SDS_P2;PMS_P1;PMS_P2;Temp;Humidity;BMP_temperature;BMP_pressure;BME280_temperature;BME280_humidity;BME280_pressure;Samples;Min_cycle;Max_cycle;Signal;HPM_P1;HPM_P2
2023/04/20 00:00:55;;;;;;;1.95;1.77;;;;;;;7.64;62.91;102357.13;5070948;28;20058;-83
2023/04/20 00:03:21;;;;;;;5.65;1.80;;;;;;;7.62;62.83;102357.22;5082979;28;20081;-81
2023/04/20 00:05:48;;;;;;;13.98;2.45;;;;;;;7.61;63.64;102366.25;5067423;28;20147;-82
2023/04/20 00:08:14;;;;;;;3.03;1.75;;;;;;;7.58;63.37;102353.09;5072439;28;20024;-80
2023/04/20 00:10:40;;;;;;;6.15;2.25;;;;;;;7.57;63.16;102354.06;5084952;28;20028;-82
2023/04/20 00:13:05;;;;;;;2.60;1.95;;;;;;;7.53;63.41;102354.44;5084565;28;20035;-81
2023/04/20 00:15:30;;;;;;;2.72;1.80;;;;;;;7.51;63.62;102348.38;5076588;28;20037;-82
2023/04/20 00:17:56;;;;;;;5.90;1.92;;;;;;;7.51;63.77;102343.88;5076387;28;20140;-81
2023/04/20 00:20:21;;;;;;;2.50;1.83;;;;;;;7.54;63.06;102332.03;5091828;28;20047;-80
2023/04/20 00:22:47;;;;;;;5.22;2.13;;;;;;;7.48;63.42;102336.94;5087455;28;20040;-82
2023/04/20 00:25:12;;;;;;;5.05;2.10;;;;;;;7.51;63.08;102341.19;5079373;28;20059;-81
2023/04/20 00:27:38;;;;;;;4.53;1.73;;;;;;;7.50;63.33;102333.25;5063977;28;20084;-82
2023/04/20 00:30:03;;;;;;;3.88;1.88;;;;;;;7.47;63.85;102320.97;5064524;28;20021;-81
2023/04/20 00:35:04;;;;;;;3.72;1.90;;;;;;;7.42;63.92;102328.53;4345535;22;20055;-42
2023/04/20 00:37:29;;;;;;;4.20;2.55;;;;;;;7.40;64.25;102326.00;5058966;28;20028;-43
2023/04/20 00:39:56;;;;;;;5.68;1.98;;;;;;;7.42;64.06;102331.19;5069439;28;20383;-43
2023/04/20 00:42:21;;;;;;;6.22;2.08;;;;;;;7.40;64.30;102325.16;5069035;28;20024;-41
2023/04/20 00:44:47;;;;;;;5.78;2.20;;;;;;;7.41;64.05;102326.84;5057852;28;20364;-40
2023/04/20 00:47:12;;;;;;;3.92;2.05;;;;;;;7.39;64.50;102318.91;5055021;28;20426;-44
2023/04/20 00:49:38;;;;;;;2.38;2.03;;;;;;;7.34;65.27;102314.91;5068893;28;20040;-44
2023/04/20 00:52:04;;;;;;;3.42;2.38;;;;;;;7.34;65.37;102310.41;5062927;28;20167;-44
2023/04/20 00:54:30;;;;;;;4.10;1.92;;;;;;;7.35;65.41;102316.63;5050690;28;20037;-44
2023/04/20 00:56:59;;;;;;;8.40;1.85;;;;;;;7.37;65.36;102306.63;5059842;28;20086;-45
2023/04/20 00:59:24;;;;;;;6.28;2.00;;;;;;;7.34;65.76;102309.56;5069161;28;20361;-47
2023/04/20 01:01:50;;;;;;;4.30;1.80;;;;;;;7.34;65.94;102304.19;5068107;28;20115;-43
2023/04/20 01:04:16;;;;;;;5.03;1.83;;;;;;;7.36;65.72;102299.56;5063342;28;20166;-43
2023/04/20 01:06:41;;;;;;;7.10;2.22;;;;;;;7.36;66.61;102291.53;5068625;28;20044;-43
2023/04/20 01:09:07;;;;;;;2.58;1.90;;;;;;;7.34;66.63;102294.31;5068856;28;20079;-40
2023/04/20 01:11:32;;;;;;;9.98;2.10;;;;;;;7.32;67.64;102292.75;5069119;28;20029;-42
2023/04/20 01:13:57;;;;;;;7.70;2.08;;;;;;;7.34;67.02;102282.75;5060120;28;20025;-44
2023/04/20 01:16:23;;;;;;;7.35;2.20;;;;;;;7.34;67.40;102282.75;5050004;28;20458;-45
2023/04/20 01:18:49;;;;;;;3.22;1.70;;;;;;;7.34;67.66;102272.91;5051228;28;20475;-41
2023/04/20 01:21:17;;;;;;;3.92;2.10;;;;;;;7.37;67.69;102272.69;5068478;28;20021;-45
2023/04/20 01:23:43;;;;;;;5.88;2.30;;;;;;;7.38;68.02;102269.00;5069663;28;20020;-44
2023/04/20 01:26:10;;;;;;;3.90;2.05;;;;;;;7.39;68.28;102264.50;5071097;28;20051;-47
2023/04/20 01:28:36;;;;;;;2.78;1.60;;;;;;;7.40;67.90;102263.53;5061901;28;20484;-41
2023/04/20 01:31:03;;;;;;;14.63;2.47;;;;;;;7.38;68.70;102262.81;5065712;28;20074;-43
2023/04/20 01:33:28;;;;;;;3.00;1.70;;;;;;;7.39;69.28;102259.13;5068099;28;20094;-41
2023/04/20 01:35:54;;;;;;;2.67;1.60;;;;;;;7.37;70.26;102247.69;5058265;28;20025;-43
2023/04/20 01:38:20;;;;;;;3.63;1.70;;;;;;;7.31;71.18;102250.88;5062193;28;20468;-43
2023/04/20 01:40:45;;;;;;;4.55;1.85;;;;;;;7.30;71.82;102242.00;5052214;28;20071;-45
2023/04/20 01:43:11;;;;;;;5.35;1.65;;;;;;;7.31;73.29;102245.53;5049418;28;20623;-46
2023/04/20 01:45:36;;;;;;;4.70;2.05;;;;;;;7.26;74.39;102244.06;5049902;28;20036;-43
2023/04/20 01:48:02;;;;;;;5.63;2.03;;;;;;;7.22;75.48;102226.56;5066685;28;20037;-40
2023/04/20 01:50:27;;;;;;;5.60;2.00;;;;;;;7.21;76.25;102219.53;5045149;28;20155;-44
2023/04/20 01:52:53;;;;;;;3.58;1.75;;;;;;;7.22;77.35;102223.88;5028425;28;20025;-43
2023/04/20 01:55:18;;;;;;;8.50;2.00;;;;;;;7.19;78.12;102225.97;5029394;28;20514;-42
2023/04/20 01:57:44;;;;;;;2.58;1.83;;;;;;;7.11;80.55;102218.56;5057805;28;20553;-44
2023/04/20 02:00:11;;;;;;;7.82;2.22;;;;;;;7.17;80.81;102215.38;5062707;28;20502;-44
2023/04/20 02:02:36;;;;;;;7.35;1.90;;;;;;;7.20;81.89;102217.81;5057953;28;20170;-44
2023/04/20 02:05:02;;;;;;;3.58;2.20;;;;;;;7.20;82.49;102215.13;5049488;28;20111;-41
2023/04/20 02:07:27;;;;;;;3.42;2.17;;;;;;;7.23;83.11;102206.00;5049220;28;20040;-41
2023/04/20 02:09:52;;;;;;;3.65;2.50;;;;;;;7.18;84.62;102202.84;5048117;28;20047;-42
2023/04/20 02:12:18;;;;;;;4.32;2.25;;;;;;;7.17;85.39;102201.16;5049612;28;20029;-46
2023/04/20 02:14:43;;;;;;;10.02;2.53;;;;;;;7.15;87.34;102203.09;5049598;28;20029;-42
2023/04/20 02:17:09;;;;;;;3.42;2.47;;;;;;;7.17;87.79;102209.19;5049794;28;20506;-44
2023/04/20 02:19:35;;;;;;;5.32;2.70;;;;;;;7.15;88.99;102209.28;5048375;28;20037;-42
2023/04/20 02:22:00;;;;;;;3.92;2.40;;;;;;;7.11;89.95;102197.16;5054404;28;20497;-46
2023/04/20 02:24:26;;;;;;;7.28;2.65;;;;;;;7.11;91.86;102198.97;5073283;28;20029;-41
2023/04/20 02:26:51;;;;;;;5.70;2.30;;;;;;;7.11;92.70;102199.84;5073282;28;20074;-45
2023/04/20 02:29:16;;;;;;;7.20;2.47;;;;;;;7.02;94.77;102189.88;5036989;28;20029;-45
2023/04/20 02:31:42;;;;;;;9.90;2.78;;;;;;;7.04;96.40;102193.28;5069486;28;20371;-45
2023/04/20 02:34:08;;;;;;;4.65;2.72;;;;;;;7.04;97.10;102196.78;5071558;28;20132;-46
2023/04/20 02:36:34;;;;;;;4.32;2.97;;;;;;;7.06;97.82;102194.00;5073605;28;20027;-43
2023/04/20 02:38:59;;;;;;;5.43;3.08;;;;;;;6.98;99.19;102196.47;5072943;28;20116;-44
2023/04/20 02:41:25;;;;;;;5.57;3.13;;;;;;;6.96;100.00;102187.69;5034934;28;20097;-43
2023/04/20 02:43:50;;;;;;;3.83;2.75;;;;;;;7.01;100.00;102190.84;5033058;28;20480;-44
2023/04/20 02:46:16;;;;;;;8.93;2.90;;;;;;;6.99;100.00;102188.28;5031577;28;20133;-45
2023/04/20 02:48:42;;;;;;;6.03;3.05;;;;;;;6.93;100.00;102179.94;5047015;28;20690;-44
2023/04/20 02:51:07;;;;;;;6.50;3.80;;;;;;;6.91;100.00;102179.19;5037249;28;20392;-43
2023/04/20 02:53:33;;;;;;;6.28;3.03;;;;;;;6.89;100.00;102167.75;5052962;28;20040;-45
2023/04/20 02:55:59;;;;;;;4.88;3.10;;;;;;;6.89;100.00;102175.78;5050347;28;20105;-42
2023/04/20 02:58:24;;;;;;;5.70;2.88;;;;;;;6.87;100.00;102172.38;5051802;28;20116;-44
2023/04/20 03:00:49;;;;;;;6.65;3.05;;;;;;;6.94;100.00;102166.41;5051152;28;20340;-43
2023/04/20 03:03:15;;;;;;;6.60;3.65;;;;;;;6.94;100.00;102162.88;5052209;28;20500;-41
2023/04/20 03:05:40;;;;;;;4.68;3.33;;;;;;;6.98;100.00;102156.31;5052410;28;20025;-41
2023/04/20 03:08:06;;;;;;;4.95;3.10;;;;;;;7.02;100.00;102163.09;5052711;28;20040;-41
2023/04/20 03:10:31;;;;;;;8.23;2.60;;;;;;;7.01;100.00;102150.69;5043842;28;20037;-42
2023/04/20 03:12:57;;;;;;;6.72;3.10;;;;;;;7.02;100.00;102149.72;5054341;28;20024;-43
2023/04/20 03:15:23;;;;;;;3.88;3.13;;;;;;;6.99;100.00;102142.78;5087871;28;20071;-44
2023/04/20 03:17:48;;;;;;;3.83;3.00;;;;;;;6.96;100.00;102144.88;5072545;28;20021;-40
2023/04/20 03:20:13;;;;;;;3.80;2.80;;;;;;;6.95;100.00;102145.84;5063326;28;20052;-43
2023/04/20 03:22:39;;;;;;;6.22;3.25;;;;;;;6.95;100.00;102140.47;5051893;28;20462;-44
2023/04/20 03:25:05;;;;;;;9.25;3.05;;;;;;;6.95;100.00;102140.47;5050398;28;20037;-44
2023/04/20 03:27:30;;;;;;;6.18;3.33;;;;;;;6.96;100.00;102134.16;5052110;28;20361;-41
2023/04/20 03:29:56;;;;;;;6.65;3.22;;;;;;;6.94;100.00;102133.44;5049954;28;20032;-44
2023/04/20 03:32:21;;;;;;;7.53;3.40;;;;;;;6.93;100.00;102134.44;5051636;28;20053;-40
2023/04/20 03:34:47;;;;;;;7.78;3.15;;;;;;;6.90;100.00;102123.94;5052283;28;20068;-43
2023/04/20 03:37:13;;;;;;;7.40;2.83;;;;;;;6.87;100.00;102129.56;5065477;28;20446;-43
2023/04/20 03:39:38;;;;;;;7.00;2.90;;;;;;;6.88;100.00;102123.25;5064724;28;20029;-41
2023/04/20 03:42:05;;;;;;;8.55;3.40;;;;;;;6.92;100.00;102124.69;5051451;28;20035;-40
2023/04/20 03:44:30;;;;;;;5.38;3.05;;;;;;;6.95;100.00;102124.41;5052039;28;20096;-41
2023/04/20 03:46:55;;;;;;;4.20;2.50;;;;;;;6.99;100.00;102115.16;5051234;28;20025;-47
2023/04/20 03:49:23;;;;;;;3.10;2.55;;;;;;;7.04;100.00;102121.00;5047521;28;20036;-44
2023/04/20 03:51:48;;;;;;;6.93;2.85;;;;;;;7.16;100.00;102116.44;5029904;28;20129;-42
2023/04/20 03:54:14;;;;;;;3.70;2.85;;;;;;;7.24;100.00;102122.00;5036905;28;20119;-43
2023/04/20 03:56:39;;;;;;;12.48;3.17;;;;;;;7.31;100.00;102111.63;5059585;28;20109;-45
2023/04/20 03:59:05;;;;;;;12.63;2.75;;;;;;;7.33;100.00;102105.16;5070071;28;20111;-43
2023/04/20 04:01:30;;;;;;;5.35;2.17;;;;;;;7.44;100.00;102101.56;5050112;28;20545;-42
2023/04/20 04:03:56;;;;;;;4.25;2.30;;;;;;;7.49;100.00;102096.69;5053696;28;20529;-43
2023/04/20 04:06:21;;;;;;;4.28;2.38;;;;;;;7.56;100.00;102097.00;5055355;28;20065;-41
2023/04/20 04:08:46;;;;;;;3.15;2.20;;;;;;;7.60;100.00;102093.91;5067603;28;20376;-39
2023/04/20 04:11:12;;;;;;;5.30;2.13;;;;;;;7.61;100.00;102084.91;5069291;28;20024;-42
2023/04/20 04:13:37;;;;;;;8.63;2.25;;;;;;;7.66;100.00;102088.06;5052046;28;20099;-43
2023/04/20 04:16:03;;;;;;;6.78;2.17;;;;;;;7.76;100.00;102084.56;5055835;28;20110;-42
2023/04/20 04:18:31;;;;;;;4.53;2.20;;;;;;;7.76;100.00;102079.19;5057757;28;20031;-41
2023/04/20 04:20:57;;;;;;;4.22;2.10;;;;;;;7.87;100.00;102087.16;5047493;28;20037;-46
2023/04/20 04:23:22;;;;;;;7.75;2.70;;;;;;;7.96;100.00;102081.00;5050584;28;20048;-40
2023/04/20 04:25:48;;;;;;;5.30;1.88;;;;;;;7.94;100.00;102079.44;5050289;28;20122;-42
2023/04/20 04:28:13;;;;;;;4.25;1.77;;;;;;;8.02;100.00;102080.44;5050888;28;20153;-42
2023/04/20 04:30:39;;;;;;;8.00;1.92;;;;;;;8.02;100.00;102077.78;5047771;28;20170;-43
2023/04/20 04:33:05;;;;;;;7.28;1.92;;;;;;;8.10;100.00;102074.41;5049602;28;20059;-44
2023/04/20 04:35:32;;;;;;;5.93;1.70;;;;;;;8.16;100.00;102076.53;5050178;28;20446;-43
2023/04/20 04:37:57;;;;;;;2.67;2.00;;;;;;;8.17;100.00;102072.06;5050809;28;20713;-40
2023/04/20 04:40:23;;;;;;;4.18;1.80;;;;;;;8.15;100.00;102064.13;5049330;28;20387;-42
2023/04/20 04:42:48;;;;;;;3.53;1.70;;;;;;;8.22;100.00;102061.75;5048167;28;20033;-42
2023/04/20 04:45:13;;;;;;;3.13;1.77;;;;;;;8.25;100.00;102056.97;5049483;28;20021;-43
2023/04/20 04:47:42;;;;;;;5.90;2.08;;;;;;;8.28;100.00;102058.53;5049660;28;20039;-43
2023/04/20 04:50:09;;;;;;;6.38;2.10;;;;;;;8.32;100.00;102044.72;5049779;28;20037;-41
2023/04/20 04:52:35;;;;;;;5.28;1.80;;;;;;;8.35;100.00;102043.59;5038192;28;20060;-42
2023/04/20 04:55:01;;;;;;;9.30;1.80;;;;;;;8.41;100.00;102043.06;5030525;28;20037;-43
2023/04/20 04:57:27;;;;;;;5.32;2.10;;;;;;;8.45;100.00;102032.88;5040461;28;20029;-45
2023/04/20 04:59:52;;;;;;;4.03;1.50;;;;;;;8.49;100.00;102028.94;5029509;28;20551;-41
2023/04/20 05:02:18;;;;;;;4.05;1.92;;;;;;;8.48;100.00;102027.28;5030370;28;20036;-41
2023/04/20 05:04:43;;;;;;;6.32;1.83;;;;;;;8.52;100.00;102029.50;5033982;28;20025;-43
2023/04/20 05:07:09;;;;;;;7.72;2.17;;;;;;;8.53;100.00;102031.22;5047455;28;20399;-41
2023/04/20 05:09:35;;;;;;;3.67;1.50;;;;;;;8.51;100.00;102027.81;5044630;28;20484;-43
2023/04/20 05:12:02;;;;;;;7.38;2.03;;;;;;;8.57;100.00;102029.94;5066429;28;20059;-44
2023/04/20 05:14:29;;;;;;;7.13;2.08;;;;;;;8.59;100.00;102031.66;5047784;28;20040;-45
2023/04/20 05:16:54;;;;;;;4.25;1.95;;;;;;;8.55;100.00;102023.84;5049047;28;20025;-42
2023/04/20 05:19:20;;;;;;;6.00;2.08;;;;;;;8.61;100.00;102026.97;5049520;28;20110;-46
2023/04/20 05:21:45;;;;;;;11.48;2.20;;;;;;;8.62;100.00;102020.63;5050224;28;20040;-46
2023/04/20 05:24:10;;;;;;;8.70;2.00;;;;;;;8.57;100.00;102016.53;5042551;28;20029;-42
2023/04/20 05:26:36;;;;;;;5.30;2.00;;;;;;;8.55;100.00;102015.81;5057850;28;20032;-45
2023/04/20 05:29:01;;;;;;;7.15;2.17;;;;;;;8.59;100.00;102018.25;5050321;28;20025;-44
2023/04/20 05:31:27;;;;;;;5.80;2.15;;;;;;;8.60;100.00;102010.03;5047933;28;20108;-46
2023/04/20 05:33:53;;;;;;;4.88;2.08;;;;;;;8.58;100.00;102012.00;5049238;28;20037;-44
2023/04/20 05:36:18;;;;;;;5.18;1.75;;;;;;;8.62;100.00;102009.91;5051190;28;20395;-39
2023/04/20 05:38:44;;;;;;;6.28;1.90;;;;;;;8.57;100.00;102011.16;5046410;28;20048;-41
2023/04/20 05:41:09;;;;;;;6.72;2.20;;;;;;;8.54;100.00;102006.06;5046064;28;20351;-42
2023/04/20 05:43:35;;;;;;;5.47;2.05;;;;;;;8.61;100.00;102000.13;5032174;28;20029;-41
2023/04/20 05:46:00;;;;;;;4.80;1.85;;;;;;;8.60;100.00;102001.13;5030897;28;20349;-41
2023/04/20 05:48:28;;;;;;;8.20;2.10;;;;;;;8.59;100.00;102002.13;5049868;28;20064;-41
2023/04/20 05:50:53;;;;;;;9.77;2.17;;;;;;;8.64;100.00;101999.88;5050237;28;20032;-42
2023/04/20 05:53:20;;;;;;;6.60;1.92;;;;;;;8.62;100.00;101997.31;5051073;28;20029;-42
2023/04/20 05:55:45;;;;;;;6.57;2.17;;;;;;;8.68;100.00;101990.53;5054001;28;20025;-44
2023/04/20 05:58:11;;;;;;;8.98;2.33;;;;;;;8.66;100.00;101988.03;5056329;28;20037;-43
2023/04/20 06:00:36;;;;;;;7.53;2.10;;;;;;;8.73;100.00;101996.34;5052401;28;20033;-46
2023/04/20 06:03:02;;;;;;;9.05;2.20;;;;;;;8.72;100.00;101995.50;5052790;28;20024;-46
2023/04/20 06:05:27;;;;;;;6.88;1.70;;;;;;;8.68;100.00;101985.19;5051022;28;20079;-41
2023/04/20 06:07:53;;;;;;;5.57;2.00;;;;;;;8.72;100.00;101991.97;5052252;28;20083;-43
2023/04/20 06:10:18;;;;;;;5.43;2.45;;;;;;;8.71;100.00;101988.41;5054222;28;20123;-42
2023/04/20 06:12:43;;;;;;;5.43;2.08;;;;;;;8.70;100.00;101980.53;5048002;28;20124;-41
2023/04/20 06:15:09;;;;;;;8.13;2.22;;;;;;;8.68;100.00;101987.88;5051694;28;20087;-41
2023/04/20 06:17:37;;;;;;;7.13;1.80;;;;;;;8.68;100.00;101991.38;5050531;28;20033;-42
2023/04/20 06:20:05;;;;;;;10.80;2.13;;;;;;;8.72;100.00;101981.22;5049752;28;20033;-43
2023/04/20 06:22:30;;;;;;;8.10;2.13;;;;;;;8.75;100.00;101980.94;5051767;28;20033;-43
2023/04/20 06:24:55;;;;;;;5.90;2.13;;;;;;;8.74;100.00;101982.78;5053157;28;20029;-44
2023/04/20 06:27:21;;;;;;;6.68;2.13;;;;;;;8.75;100.00;101984.47;5053183;28;20025;-43
2023/04/20 06:29:46;;;;;;;13.32;2.40;;;;;;;8.74;100.00;101974.75;5052966;28;20056;-45
2023/04/20 06:32:11;;;;;;;5.70;1.83;;;;;;;8.73;100.00;101978.38;5052861;28;20028;-42
2023/04/20 06:34:37;;;;;;;8.30;2.20;;;;;;;8.74;100.00;101979.22;5053243;28;20044;-44
2023/04/20 06:37:05;;;;;;;4.55;2.05;;;;;;;8.74;100.00;101979.22;5053239;28;20025;-43
2023/04/20 06:39:31;;;;;;;10.57;3.47;;;;;;;8.69;100.00;101978.81;5053137;28;20078;-43
2023/04/20 06:41:57;;;;;;;3.30;1.90;;;;;;;8.66;100.00;101971.91;5053341;28;20021;-42
2023/04/20 06:44:22;;;;;;;5.25;2.20;;;;;;;8.64;100.00;101968.53;5051976;28;20048;-43
2023/04/20 06:46:48;;;;;;;8.48;2.33;;;;;;;8.68;100.00;101974.44;5053253;28;20029;-44
2023/04/20 06:49:13;;;;;;;6.32;2.13;;;;;;;8.75;100.00;101980.94;5053149;28;20021;-43
2023/04/20 06:51:39;;;;;;;6.25;2.30;;;;;;;8.71;100.00;101977.69;5052011;28;20112;-46
2023/04/20 06:54:04;;;;;;;7.45;2.60;;;;;;;8.70;100.00;101972.47;5053048;28;20043;-43
2023/04/20 06:56:29;;;;;;;7.05;2.38;;;;;;;8.70;100.00;101972.47;5052648;28;20444;-40
2023/04/20 06:58:55;;;;;;;12.05;2.83;;;;;;;8.68;100.00;101974.44;5052688;28;20025;-42
2023/04/20 07:01:20;;;;;;;4.93;2.10;;;;;;;8.64;100.00;101962.31;5051311;28;20032;-44
2023/04/20 07:03:46;;;;;;;5.45;2.88;;;;;;;8.54;100.00;101963.16;5051175;28;20032;-43
2023/04/20 07:06:11;;;;;;;13.27;2.70;;;;;;;8.47;100.00;101950.44;5033865;28;20538;-43
2023/04/20 07:08:38;;;;;;;6.18;2.38;;;;;;;8.52;100.00;101945.50;5052329;28;20029;-41
2023/04/20 07:11:03;;;;;;;4.95;2.70;;;;;;;8.49;100.00;101952.00;5052851;28;20040;-42
2023/04/20 07:13:31;;;;;;;5.88;2.78;;;;;;;8.41;100.00;101951.84;5051153;28;20476;-43
2023/04/20 07:15:57;;;;;;;5.40;2.50;;;;;;;8.40;100.00;101941.25;5052678;28;20115;-42
2023/04/20 07:18:22;;;;;;;6.80;3.53;;;;;;;8.45;100.00;101941.66;5052467;28;20112;-42
2023/04/20 07:20:48;;;;;;;6.97;2.28;;;;;;;8.47;100.00;101945.91;5052447;28;20128;-41
2023/04/20 07:23:13;;;;;;;10.88;4.07;;;;;;;8.51;100.00;101949.19;5052006;28;20036;-42
2023/04/20 07:25:38;;;;;;;8.25;2.50;;;;;;;8.62;100.00;101951.72;5050859;28;20512;-41
2023/04/20 07:28:04;;;;;;;4.13;2.40;;;;;;;8.69;100.00;101955.53;5050329;28;20536;-41
2023/04/20 07:30:30;;;;;;;7.57;2.60;;;;;;;8.68;100.00;101955.66;5052401;28;20094;-43
2023/04/20 07:32:56;;;;;;;11.50;2.72;;;;;;;8.71;100.00;101958.88;5051758;28;20130;-44
2023/04/20 07:35:21;;;;;;;17.05;3.05;;;;;;;8.62;100.00;101954.38;5051956;28;20484;-41
2023/04/20 07:37:47;;;;;;;5.43;2.65;;;;;;;8.65;100.00;101961.31;5052038;28;20053;-41
2023/04/20 07:40:12;;;;;;;5.72;2.42;;;;;;;8.57;100.00;101952.13;5052337;28;20356;-41
2023/04/20 07:42:38;;;;;;;10.23;2.85;;;;;;;8.61;100.00;101957.19;5051860;28;20043;-43
2023/04/20 07:45:06;;;;;;;6.47;2.50;;;;;;;8.67;100.00;101956.66;5051744;28;20070;-44
2023/04/20 07:47:35;;;;;;;6.55;2.88;;;;;;;8.63;100.00;101960.59;5052209;28;20108;-43
2023/04/20 07:50:00;;;;;;;7.63;3.25;;;;;;;8.64;100.00;101951.56;5050648;28;20108;-45
2023/04/20 07:52:26;;;;;;;5.15;2.70;;;;;;;8.63;100.00;101960.59;5051945;28;20059;-42
2023/04/20 07:54:57;;;;;;;4.55;3.38;;;;;;;8.58;100.00;101947.59;5051368;28;20033;-45
2023/04/20 07:57:23;;;;;;;5.07;2.63;;;;;;;8.50;100.00;101961.72;5051655;28;20028;-42
2023/04/20 07:59:48;;;;;;;4.53;2.58;;;;;;;8.36;100.00;101970.16;5051755;28;20025;-41
2023/04/20 08:02:14;;;;;;;4.53;2.75;;;;;;;8.34;100.00;101956.03;5051494;28;20037;-43
2023/04/20 08:04:40;;;;;;;4.00;2.50;;;;;;;8.34;100.00;101961.41;5051349;28;20065;-42
2023/04/20 08:07:05;;;;;;;3.13;2.42;;;;;;;8.30;100.00;101955.47;5050293;28;20036;-43
2023/04/20 08:09:31;;;;;;;5.97;2.60;;;;;;;8.25;100.00;101963.09;5051322;28;20029;-45
2023/04/20 08:11:56;;;;;;;7.22;3.13;;;;;;;8.05;100.00;101962.19;5052083;28;20024;-42
2023/04/20 08:14:22;;;;;;;3.53;2.70;;;;;;;7.99;100.00;101951.19;5051270;28;20336;-42
2023/04/20 08:16:47;;;;;;;4.63;2.72;;;;;;;7.87;100.00;101963.84;5051605;28;20128;-44
2023/04/20 08:19:14;;;;;;;4.40;2.85;;;;;;;7.69;100.00;101972.56;5050023;28;20025;-45
2023/04/20 08:21:39;;;;;;;4.32;2.95;;;;;;;7.42;100.00;101953.53;5050931;28;20404;-42
2023/04/20 08:24:06;;;;;;;7.35;3.10;;;;;;;7.22;100.00;101969.50;5050871;28;20067;-42
2023/04/20 08:26:31;;;;;;;8.20;3.50;;;;;;;7.11;100.00;101972.28;5051147;28;20421;-41
2023/04/20 08:28:56;;;;;;;12.48;3.40;;;;;;;6.99;100.00;101976.00;5051228;28;20048;-41
2023/04/20 08:31:22;;;;;;;5.85;3.53;;;;;;;6.81;100.00;101976.56;5050903;28;20495;-45
2023/04/20 08:33:47;;;;;;;8.15;3.42;;;;;;;6.74;100.00;101980.75;5050823;28;20063;-40
2023/04/20 08:36:13;;;;;;;4.50;3.40;;;;;;;6.68;100.00;101975.91;5051164;28;20108;-41
2023/04/20 08:38:38;;;;;;;10.90;4.32;;;;;;;6.60;100.00;101970.34;5049585;28;20039;-41
2023/04/20 08:41:03;;;;;;;8.63;4.13;;;;;;;6.57;100.00;101979.47;5050702;28;20119;-42
2023/04/20 08:43:30;;;;;;;6.82;4.00;;;;;;;6.62;100.00;101978.25;5050632;28;20074;-43
2023/04/20 08:46:01;;;;;;;10.13;3.67;;;;;;;6.60;100.00;101978.38;5050552;28;20021;-43
2023/04/20 08:48:35;;;;;;;6.72;3.15;;;;;;;6.53;100.00;101995.91;5050680;28;20024;-40
2023/04/20 08:51:08;;;;;;;5.22;3.50;;;;;;;6.49;100.00;102007.84;5087470;27;20393;-45
2023/04/20 08:53:33;;;;;;;6.30;3.67;;;;;;;6.47;100.00;101988.38;5086375;28;20036;-44
2023/04/20 08:55:58;;;;;;;8.20;4.13;;;;;;;6.43;100.00;101993.16;5087934;28;20028;-42
2023/04/20 08:58:27;;;;;;;5.95;3.90;;;;;;;6.46;100.00;101989.38;5086288;28;20040;-43
2023/04/20 09:00:52;;;;;;;;;;;;;;;6.40;100.00;101977.38;5086616;28;20398;-46
2023/04/20 09:03:30;;;;;;;9.50;4.10;;;;;;;6.44;100.00;101967.25;5087527;28;19908;-45
2023/04/20 09:05:56;;;;;;;9.25;4.45;;;;;;;6.54;100.00;101974.38;5087081;28;20104;-41
2023/04/20 09:08:33;;;;;;;13.60;4.22;;;;;;;6.62;100.00;101960.38;5087332;28;20490;-43
2023/04/20 09:10:58;;;;;;;11.45;4.35;;;;;;;6.72;100.00;101961.28;5087140;28;20093;-43
2023/04/20 09:13:23;;;;;;;9.48;4.20;;;;;;;6.80;100.00;101964.16;5087575;28;20024;-44
2023/04/20 09:15:49;;;;;;;7.20;4.55;;;;;;;6.85;100.00;101957.59;5087529;28;20100;-41
2023/04/20 09:18:14;;;;;;;10.00;4.75;;;;;;;6.91;100.00;101962.41;5086185;28;20035;-42
2023/04/20 09:20:40;;;;;;;7.13;5.07;;;;;;;6.94;100.00;101967.50;5087287;28;20519;-42
2023/04/20 09:23:17;;;;;;;12.65;5.05;;;;;;;6.98;100.00;101955.56;5087656;28;20035;-43
2023/04/20 09:25:45;;;;;;;11.75;4.40;;;;;;;6.94;100.00;101964.81;5087671;28;20059;-40
2023/04/20 09:28:12;;;;;;;10.25;4.78;;;;;;;6.85;100.00;101966.47;5087263;28;20221;-42
2023/04/20 09:30:46;;;;;;;11.98;4.30;;;;;;;6.78;100.00;101950.06;5086572;28;20056;-43
2023/04/20 09:33:13;;;;;;;10.48;4.30;;;;;;;6.71;100.00;101953.38;5086765;28;20024;-45
2023/04/20 09:35:40;;;;;;;9.05;4.53;;;;;;;6.63;100.00;101950.50;5087299;28;20036;-46
2023/04/20 09:38:07;;;;;;;14.07;4.80;;;;;;;6.68;100.00;101938.44;5087426;28;20485;-43
2023/04/20 09:40:32;;;;;;;11.00;4.85;;;;;;;6.74;100.00;101939.75;5086707;28;20067;-41
2023/04/20 09:43:02;;;;;;;7.50;4.78;;;;;;;6.82;100.00;101940.81;5086773;28;20028;-44
2023/04/20 09:45:28;;;;;;;10.02;4.85;;;;;;;6.94;100.00;101932.72;5085627;28;20054;-44
2023/04/20 09:47:54;;;;;;;9.25;5.35;;;;;;;7.07;100.00;101928.00;5086740;28;20066;-43
2023/04/20 09:50:20;;;;;;;9.93;5.20;;;;;;;7.22;100.00;101939.22;5086552;28;20052;-44
2023/04/20 09:52:48;;;;;;;10.10;4.90;;;;;;;7.23;100.00;101936.38;5086753;28;20020;-44
2023/04/20 09:55:13;;;;;;;7.35;4.40;;;;;;;7.25;100.00;101937.13;5086927;28;20115;-43
2023/04/20 09:57:39;;;;;;;9.02;4.68;;;;;;;7.23;100.00;101920.31;5087859;28;20505;-44
2023/04/20 10:00:06;;;;;;;12.15;5.45;;;;;;;7.28;100.00;101919.09;5087416;28;20016;-46
2023/04/20 10:02:32;;;;;;;12.32;5.97;;;;;;;7.32;100.00;101916.03;5072989;28;20493;-41
2023/04/20 10:04:58;;;;;;;9.65;5.53;;;;;;;7.37;100.00;101907.56;5073154;28;20032;-44
2023/04/20 10:07:28;;;;;;;10.43;5.57;;;;;;;7.36;100.00;101898.69;5072407;28;20036;-41
2023/04/20 10:10:04;;;;;;;13.60;5.97;;;;;;;7.39;100.00;101901.09;5072699;28;20485;-43
2023/04/20 10:12:29;;;;;;;10.80;5.80;;;;;;;7.45;100.00;101899.69;5072872;28;20020;-42
2023/04/20 10:14:56;;;;;;;12.80;5.53;;;;;;;7.57;100.00;101898.63;5072707;28;20028;-42
2023/04/20 10:17:29;;;;;;;11.65;5.53;;;;;;;7.72;100.00;101898.25;5072466;28;20032;-45
2023/04/20 10:19:54;;;;;;;11.70;5.78;;;;;;;8.02;100.00;101910.72;5072640;28;20032;-42
2023/04/20 10:22:32;;;;;;;11.73;6.20;;;;;;;8.18;100.00;101896.75;5071670;28;20025;-43
2023/04/20 10:25:13;;;;;;;16.75;6.00;;;;;;;8.06;100.00;101891.53;5073348;28;20074;-43
2023/04/20 10:27:39;;;;;;;17.30;6.00;;;;;;;8.07;100.00;101885.16;5073188;28;20036;-41
2023/04/20 10:30:09;;;;;;;11.73;5.88;;;;;;;8.07;100.00;101879.81;5072481;28;20028;-43
2023/04/20 10:32:34;;;;;;;9.65;4.90;;;;;;;8.05;100.00;101880.94;5072303;28;20071;-43
2023/04/20 10:35:05;;;;;;;10.38;5.82;;;;;;;8.17;100.00;101884.34;5070747;28;20470;-44
2023/04/20 10:37:31;;;;;;;11.90;6.40;;;;;;;8.42;100.00;101862.31;5072336;28;20359;-42
2023/04/20 10:39:57;;;;;;;11.02;5.72;;;;;;;8.46;100.00;101865.59;5070934;28;20033;-42
2023/04/20 10:42:22;;;;;;;14.07;6.05;;;;;;;8.34;100.00;101854.13;5072163;28;20037;-42
2023/04/20 10:44:54;;;;;;;11.85;6.60;;;;;;;8.36;100.00;101866.41;5072041;28;20031;-43
2023/04/20 10:47:30;;;;;;;9.57;5.30;;;;;;;8.43;100.00;101872.09;5072454;28;20449;-43
2023/04/20 10:50:12;;;;;;;11.60;5.70;;;;;;;8.35;100.00;101878.13;5071749;28;20054;-42
2023/04/20 10:52:40;;;;;;;10.63;5.93;;;;;;;8.33;100.00;101880.09;5071890;28;20025;-43
2023/04/20 10:55:16;;;;;;;10.93;5.47;;;;;;;8.29;100.00;101876.03;5072359;28;20363;-43
2023/04/20 10:57:44;;;;;;;12.40;5.82;;;;;;;8.44;100.00;101860.34;5072094;28;20039;-41
2023/04/20 11:00:17;;;;;;;8.13;5.82;;;;;;;8.67;100.00;101865.41;5070404;28;20036;-44
2023/04/20 11:02:50;;;;;;;13.65;5.75;;;;;;;8.93;100.00;101852.22;5069878;28;20044;-44
2023/04/20 11:05:17;;;;;;;13.77;6.40;;;;;;;9.14;100.00;101860.03;5071967;28;20024;-42
2023/04/20 11:07:54;;;;;;;10.05;5.72;;;;;;;9.52;100.00;101855.47;5071980;28;20017;-44
2023/04/20 11:10:22;;;;;;;10.63;5.75;;;;;;;10.22;100.00;101843.06;5072037;28;20108;-43
2023/04/20 11:12:48;;;;;;;12.35;6.03;;;;;;;10.07;100.00;101845.47;5069702;28;20493;-45
2023/04/20 11:15:15;;;;;;;9.55;5.63;;;;;;;9.80;100.00;101834.78;5070286;28;20024;-44
2023/04/20 11:17:40;;;;;;;10.43;6.15;;;;;;;9.97;100.00;101830.41;5071838;28;20028;-43
2023/04/20 11:20:09;;;;;;;10.00;5.80;;;;;;;10.56;100.00;101828.91;5072130;28;20033;-42
2023/04/20 11:22:34;;;;;;;11.57;5.88;;;;;;;10.77;100.00;101837.47;5070091;28;20447;-43